createdAt,value
2022-08-26T00:00:51.277Z,12.27
2022-08-26T00:04:33.703Z,9.15
2022-08-26T00:08:15.781Z,11.10
2022-08-26T00:11:57.570Z,17.17
2022-08-26T00:15:39.418Z,13.32
2022-08-26T00:19:21.663Z,16.30
2022-08-26T00:23:04.072Z,8.43
2022-08-26T00:26:46.225Z,9.68
2022-08-26T00:30:29.378Z,12.57
2022-08-26T00:34:13.129Z,12.27
2022-08-26T00:37:56.082Z,9.38
2022-08-26T00:41:38.664Z,13.88
2022-08-26T00:45:21.125Z,8.15
2022-08-26T00:49:12.402Z,8.52
2022-08-26T00:52:54.406Z,9.18
2022-08-26T00:56:38.568Z,13.13
2022-08-26T01:00:23.362Z,6.50
2022-08-26T01:04:05.241Z,13.07
2022-08-26T01:07:47.121Z,17.33
2022-08-26T01:11:32.068Z,10.88
2022-08-26T01:15:18.277Z,11.65
2022-08-26T01:19:03.867Z,13.77
2022-08-26T01:23:12.107Z,19.73
2022-08-26T01:26:58.262Z,8.02
2022-08-26T01:30:40.805Z,10.70
2022-08-26T01:34:35.038Z,10.43
2022-08-26T01:38:17.023Z,9.50
2022-08-26T01:41:58.943Z,11.25
2022-08-26T01:45:45.205Z,8.65
2022-08-26T01:49:27.071Z,8.40
2022-08-26T01:53:10.732Z,16.50
2022-08-26T01:56:53.303Z,12.52
2022-08-26T02:00:35.405Z,7.40
2022-08-26T02:04:33.672Z,12.98
2022-08-26T02:08:15.601Z,13.20
2022-08-26T02:12:06.868Z,13.55
2022-08-26T02:15:52.390Z,9.65
2022-08-26T02:19:35.627Z,13.30
2022-08-26T02:23:18.062Z,12.07
2022-08-26T02:26:59.895Z,11.73
2022-08-26T02:30:42.908Z,11.82
2022-08-26T02:34:31.221Z,8.10
2022-08-26T02:38:13.224Z,6.93
2022-08-26T02:41:55.201Z,10.68
2022-08-26T02:45:37.136Z,9.23
2022-08-26T02:49:19.633Z,11.13
2022-08-26T02:53:03.013Z,9.02
2022-08-26T02:56:44.930Z,9.30
2022-08-26T03:00:26.837Z,11.57
2022-08-26T03:04:11.615Z,9.65
2022-08-26T03:07:54.016Z,14.95
2022-08-26T03:11:36.725Z,7.00
2022-08-26T03:15:18.640Z,9.55
2022-08-26T03:19:01.131Z,11.07
2022-08-26T03:22:43.065Z,12.93
2022-08-26T03:26:24.953Z,12.70
2022-08-26T03:30:26.173Z,7.80
2022-08-26T03:34:08.418Z,8.30
2022-08-26T03:37:50.190Z,8.50
2022-08-26T03:41:33.853Z,8.57
2022-08-26T03:45:16.687Z,12.63
2022-08-26T03:48:58.588Z,12.18
2022-08-26T03:52:43.870Z,11.23
2022-08-26T03:56:27.129Z,9.10
2022-08-26T04:00:12.315Z,12.95
2022-08-26T04:04:00.510Z,9.05
2022-08-26T04:07:42.935Z,8.27
2022-08-26T04:11:28.461Z,8.45
2022-08-26T04:15:13.625Z,8.82
2022-08-26T04:18:57.158Z,9.95
2022-08-26T04:22:38.965Z,9.63
2022-08-26T04:26:22.633Z,7.13
2022-08-26T04:30:05.697Z,7.93
2022-08-26T04:33:50.807Z,9.90
2022-08-26T04:37:33.521Z,10.82
2022-08-26T04:41:16.960Z,6.68
2022-08-26T04:44:59.034Z,18.98
2022-08-26T04:48:41.330Z,8.10
2022-08-26T04:52:24.083Z,14.68
2022-08-26T04:56:08.611Z,8.57
2022-08-26T04:59:51.970Z,4.85
2022-08-26T05:03:33.873Z,9.80
2022-08-26T05:07:17.697Z,7.07
2022-08-26T05:10:59.554Z,7.30
2022-08-26T05:14:42.088Z,10.38
2022-08-26T05:18:27.545Z,6.95
2022-08-26T05:22:09.340Z,11.23
2022-08-26T05:25:55.815Z,11.98
2022-08-26T05:29:40.765Z,16.25
2022-08-26T05:33:22.606Z,8.48
2022-08-26T05:37:05.503Z,12.93
2022-08-26T05:40:49.498Z,10.88
2022-08-26T05:44:53.761Z,8.13
2022-08-26T05:48:36.821Z,7.20
2022-08-26T05:52:19.265Z,14.27
2022-08-26T05:56:01.182Z,14.00
2022-08-26T05:59:42.982Z,10.23
2022-08-26T06:03:24.981Z,11.30
2022-08-26T06:07:07.321Z,5.82
2022-08-26T06:10:54.984Z,7.82
2022-08-26T06:14:36.838Z,8.52
2022-08-26T06:18:21.089Z,8.02
2022-08-26T06:22:23.700Z,6.00
2022-08-26T06:26:06.093Z,11.63
2022-08-26T06:29:47.936Z,9.20
2022-08-26T06:33:31.222Z,8.98
2022-08-26T06:37:13.131Z,7.68
2022-08-26T06:40:55.022Z,16.00
2022-08-26T06:44:36.834Z,14.68
2022-08-26T06:48:20.263Z,12.77
2022-08-26T06:52:03.529Z,8.98
2022-08-26T06:55:46.093Z,9.52
2022-08-26T06:59:28.315Z,5.97
2022-08-26T07:03:10.447Z,12.25
2022-08-26T07:06:53.607Z,8.23
2022-08-26T07:10:35.996Z,6.70
2022-08-26T07:14:19.304Z,19.23
2022-08-26T07:18:03.371Z,16.80
2022-08-26T07:21:45.151Z,9.35
2022-08-26T07:25:26.914Z,14.73
2022-08-26T07:29:08.778Z,11.15
2022-08-26T07:32:50.561Z,7.88
2022-08-26T07:36:32.484Z,6.22
2022-08-26T07:40:14.824Z,11.40
2022-08-26T07:43:58.067Z,9.05
2022-08-26T07:47:40.658Z,13.30
2022-08-26T07:51:22.906Z,10.57
2022-08-26T07:55:05.372Z,11.95
2022-08-26T07:58:51.337Z,7.95
2022-08-26T08:02:33.777Z,11.43
2022-08-26T08:06:16.387Z,6.63
2022-08-26T08:09:58.198Z,9.73
2022-08-26T08:13:40.117Z,8.48
2022-08-26T08:17:21.967Z,10.02
2022-08-26T08:21:21.109Z,5.57
2022-08-26T08:25:06.361Z,8.00
2022-08-26T08:28:50.305Z,6.18
2022-08-26T08:32:32.188Z,6.47
2022-08-26T08:36:18.546Z,5.80
2022-08-26T08:40:03.463Z,4.65
2022-08-26T08:43:46.438Z,3.90
2022-08-26T08:47:33.850Z,4.07
2022-08-26T08:51:31.728Z,3.88
2022-08-26T08:55:16.090Z,8.02
2022-08-26T08:59:19.580Z,6.73
2022-08-26T09:03:09.733Z,5.40
2022-08-26T09:06:54.066Z,7.20
2022-08-26T09:10:51.117Z,3.20
2022-08-26T09:14:32.953Z,5.85
2022-08-26T09:18:45.966Z,4.35
2022-08-26T09:22:32.992Z,4.70
2022-08-26T09:26:17.560Z,3.22
2022-08-26T09:30:00.478Z,5.55
2022-08-26T09:33:42.395Z,3.45
2022-08-26T09:37:41.942Z,4.10
2022-08-26T09:41:31.722Z,6.40
2022-08-26T09:45:13.879Z,5.90
2022-08-26T09:48:56.290Z,6.53
2022-08-26T09:52:40.430Z,5.20
2022-08-26T09:56:25.838Z,4.07
2022-08-26T10:00:38.610Z,4.05
2022-08-26T10:04:22.834Z,5.30
2022-08-26T10:08:26.148Z,4.30
2022-08-26T10:12:18.772Z,4.00
2022-08-26T10:16:00.619Z,2.38
2022-08-26T10:19:56.855Z,3.45
2022-08-26T10:23:42.662Z,9.32
2022-08-26T10:27:33.967Z,6.75
2022-08-26T10:31:27.604Z,5.25
2022-08-26T10:35:11.160Z,3.13
2022-08-26T10:38:52.965Z,5.13
2022-08-26T10:42:37.584Z,8.00
2022-08-26T10:46:22.444Z,3.42
2022-08-26T10:50:09.033Z,5.80
2022-08-26T10:53:58.162Z,7.25
2022-08-26T10:57:47.359Z,11.05
2022-08-26T11:01:43.264Z,5.68
2022-08-26T11:05:25.325Z,15.98
2022-08-26T11:09:08.729Z,4.15
2022-08-26T11:12:54.504Z,4.28
2022-08-26T11:16:44.306Z,2.72
2022-08-26T11:20:33.983Z,8.45
2022-08-26T11:24:38.282Z,9.32
2022-08-26T11:28:35.497Z,8.55
2022-08-26T11:32:35.822Z,2.35
2022-08-26T11:36:45.778Z,6.05
2022-08-26T11:40:32.547Z,5.30
2022-08-26T11:44:22.799Z,2.72
2022-08-26T11:48:29.687Z,3.78
2022-08-26T11:52:22.039Z,7.05
2022-08-26T11:56:26.558Z,4.47
2022-08-26T12:00:16.889Z,5.97
2022-08-26T12:04:08.184Z,5.53
2022-08-26T12:07:50.999Z,3.00
2022-08-26T12:11:36.035Z,10.50
2022-08-26T12:15:19.801Z,3.28
2022-08-26T12:19:21.976Z,4.40
2022-08-26T12:23:06.934Z,5.50
2022-08-26T12:26:48.801Z,4.47
2022-08-26T12:30:31.122Z,6.25
2022-08-26T12:34:18.451Z,2.47
2022-08-26T12:38:00.729Z,5.00
2022-08-26T12:41:48.343Z,2.00
2022-08-26T12:45:37.515Z,4.13
2022-08-26T12:49:19.431Z,1.88
2022-08-26T12:53:04.243Z,8.13
2022-08-26T12:56:46.040Z,5.75
2022-08-26T13:00:33.622Z,4.45
2022-08-26T13:04:38.467Z,4.35
2022-08-26T13:08:27.720Z,3.00
2022-08-26T13:12:11.370Z,5.68
2022-08-26T13:15:54.357Z,5.70
2022-08-26T13:19:36.165Z,1.13
2022-08-26T13:23:19.172Z,4.90
2022-08-26T13:27:01.152Z,5.30
2022-08-26T13:30:45.246Z,4.72
2022-08-26T13:34:27.100Z,4.25
2022-08-26T13:38:18.557Z,4.22
2022-08-26T13:42:14.870Z,3.08
2022-08-26T13:45:56.765Z,3.90
2022-08-26T13:49:39.326Z,4.43
2022-08-26T13:53:21.301Z,5.13
2022-08-26T13:57:03.220Z,6.45
2022-08-26T14:00:45.129Z,3.15
2022-08-26T14:04:28.806Z,8.93
2022-08-26T14:08:10.823Z,2.65
2022-08-26T14:11:54.875Z,2.03
2022-08-26T14:15:37.763Z,1.42
2022-08-26T14:19:19.645Z,1.35
2022-08-26T14:23:14.464Z,2.60
2022-08-26T14:26:56.434Z,2.38
2022-08-26T14:30:40.203Z,3.92
2022-08-26T14:34:22.019Z,4.22
2022-08-26T14:38:03.918Z,6.88
2022-08-26T14:41:54.457Z,4.22
2022-08-26T14:45:37.846Z,3.40
2022-08-26T14:49:20.009Z,4.80
2022-08-26T14:53:20.203Z,3.47
2022-08-26T14:57:05.494Z,3.70
2022-08-26T15:00:47.254Z,4.38
2022-08-26T15:04:29.202Z,3.70
2022-08-26T15:08:11.211Z,5.47
2022-08-26T15:11:53.248Z,3.47
2022-08-26T15:15:35.091Z,3.35
2022-08-26T15:19:17.393Z,4.38
2022-08-26T15:23:03.319Z,4.05
2022-08-26T15:26:48.301Z,2.88
2022-08-26T15:30:30.110Z,2.88
2022-08-26T15:34:16.449Z,4.57
2022-08-26T15:37:58.893Z,5.65
2022-08-26T15:41:41.072Z,3.92
2022-08-26T15:45:25.850Z,6.70
2022-08-26T15:49:08.178Z,2.42
2022-08-26T15:53:01.340Z,2.38
2022-08-26T15:56:43.627Z,3.92
2022-08-26T16:00:26.433Z,1.83
2022-08-26T16:04:08.255Z,4.28
2022-08-26T16:07:50.006Z,1.67
2022-08-26T16:11:31.823Z,3.42
2022-08-26T16:15:13.775Z,2.97
2022-08-26T16:18:55.570Z,6.22
2022-08-26T16:22:37.393Z,6.45
2022-08-26T16:26:21.457Z,2.45
2022-08-26T16:30:07.014Z,2.92
2022-08-26T16:33:48.843Z,2.83
2022-08-26T16:37:30.719Z,1.65
2022-08-26T16:41:12.495Z,1.35
2022-08-26T16:44:54.295Z,1.95
2022-08-26T16:48:37.634Z,2.08
2022-08-26T16:52:19.479Z,3.60
2022-08-26T16:56:01.226Z,2.25
2022-08-26T16:59:43.109Z,2.20
2022-08-26T17:03:24.875Z,4.28
2022-08-26T17:07:06.708Z,2.85
2022-08-26T17:10:49.248Z,1.80
2022-08-26T17:14:36.965Z,2.92
2022-08-26T17:18:18.737Z,4.20
2022-08-26T17:22:00.561Z,2.80
2022-08-26T17:25:42.460Z,4.20
2022-08-26T17:29:24.273Z,2.80
2022-08-26T17:33:10.917Z,2.25
2022-08-26T17:36:52.955Z,5.05
2022-08-26T17:40:34.873Z,4.55
2022-08-26T17:44:16.723Z,5.68
2022-08-26T17:47:58.551Z,1.98
2022-08-26T17:51:41.009Z,6.70
2022-08-26T17:55:22.776Z,2.55
2022-08-26T17:59:04.896Z,2.45
2022-08-26T18:02:46.811Z,3.85
2022-08-26T18:06:28.833Z,5.05
2022-08-26T18:10:13.332Z,3.95
2022-08-26T18:13:55.428Z,1.92
2022-08-26T18:17:39.153Z,4.88
2022-08-26T18:21:23.412Z,5.32
2022-08-26T18:25:06.017Z,3.83
2022-08-26T18:28:47.961Z,4.20
2022-08-26T18:32:29.723Z,10.25
2022-08-26T18:36:16.525Z,9.40
2022-08-26T18:39:59.505Z,7.20
2022-08-26T18:43:41.407Z,18.63
2022-08-26T18:47:23.244Z,24.08
2022-08-26T18:51:06.841Z,9.70
2022-08-26T18:54:51.441Z,12.60
2022-08-26T18:58:33.247Z,7.18
2022-08-26T19:02:15.196Z,13.18
2022-08-26T19:05:57.070Z,22.52
2022-08-26T19:09:38.838Z,15.20
2022-08-26T19:13:21.210Z,11.95
2022-08-26T19:17:03.112Z,5.65
2022-08-26T19:20:46.746Z,6.32
2022-08-26T19:24:28.714Z,6.53
2022-08-26T19:28:10.521Z,8.73
2022-08-26T19:31:52.317Z,11.57
2022-08-26T19:35:34.238Z,10.57
2022-08-26T19:39:16.058Z,4.10
2022-08-26T19:42:57.913Z,9.38
2022-08-26T19:46:39.936Z,5.07
2022-08-26T19:50:22.148Z,9.90
2022-08-26T19:54:04.325Z,16.45
2022-08-26T19:57:46.250Z,12.00
2022-08-26T20:01:28.087Z,8.75
2022-08-26T20:05:10.743Z,10.95
2022-08-26T20:08:53.923Z,7.82
2022-08-26T20:12:38.350Z,4.60
2022-08-26T20:16:20.208Z,3.55
2022-08-26T20:20:28.412Z,4.28
2022-08-26T20:24:17.054Z,3.92
2022-08-26T20:27:59.278Z,4.18
2022-08-26T20:31:41.500Z,3.33
2022-08-26T20:35:23.972Z,5.07
2022-08-26T20:39:06.292Z,5.47
2022-08-26T20:42:48.123Z,4.20
2022-08-26T20:46:29.974Z,3.38
2022-08-26T20:50:11.849Z,4.25
2022-08-26T20:53:53.735Z,3.22
2022-08-26T20:57:35.536Z,6.07
2022-08-26T21:01:30.648Z,8.65
2022-08-26T21:05:12.540Z,7.00
2022-08-26T21:08:54.563Z,7.85
2022-08-26T21:12:36.745Z,3.88
2022-08-26T21:16:19.622Z,6.82
2022-08-26T21:20:01.551Z,4.55
2022-08-26T21:23:43.357Z,3.88
2022-08-26T21:27:26.597Z,2.83
2022-08-26T21:31:13.786Z,2.83
2022-08-26T21:34:56.912Z,3.83
2022-08-26T21:38:39.089Z,5.20
2022-08-26T21:42:20.865Z,4.57
2022-08-26T21:46:11.320Z,4.85
2022-08-26T21:49:53.369Z,6.32
2022-08-26T21:53:35.565Z,4.47
2022-08-26T21:57:17.615Z,7.35
2022-08-26T22:00:59.396Z,10.05
2022-08-26T22:04:43.655Z,3.30
2022-08-26T22:08:30.195Z,3.90
2022-08-26T22:12:12.183Z,4.35
2022-08-26T22:15:54.254Z,4.53
2022-08-26T22:19:45.794Z,4.50
2022-08-26T22:23:28.431Z,5.68
2022-08-26T22:27:11.894Z,5.45
2022-08-26T22:30:53.694Z,2.53
2022-08-26T22:34:35.474Z,3.13
2022-08-26T22:38:17.395Z,6.55
2022-08-26T22:41:59.155Z,7.18
2022-08-26T22:45:42.680Z,4.43
2022-08-26T22:49:24.616Z,5.10
2022-08-26T22:53:06.370Z,5.55
2022-08-26T22:56:48.611Z,2.72
2022-08-26T23:00:32.086Z,4.03
2022-08-26T23:04:14.414Z,6.35
2022-08-26T23:07:56.773Z,6.57
2022-08-26T23:11:42.175Z,5.78
2022-08-26T23:15:24.269Z,14.75
2022-08-26T23:19:06.040Z,9.48
2022-08-26T23:22:48.452Z,8.43
2022-08-26T23:26:30.385Z,5.03
2022-08-26T23:30:15.510Z,2.20
2022-08-26T23:34:15.690Z,5.22
2022-08-26T23:37:59.108Z,8.13
2022-08-26T23:41:41.618Z,12.27
2022-08-26T23:45:23.581Z,5.93
2022-08-26T23:49:05.425Z,6.72
2022-08-26T23:53:05.688Z,7.00
2022-08-26T23:56:47.451Z,6.10
